Time;durP1;ratioP1;P1;durP2;ratioP2;P2;SDS_P1;SDS_P2;PMS_P1;PMS_P2;Temp;Humidity;BMP_temperature;BMP_pressure;BME280_temperature;BME280_humidity;BME280_pressure;Samples;Min_cycle;Max_cycle;Signal;HPM_P1;HPM_P2
2022/03/12 00:02:14;;;;;;;76.60;12.20;;;;;;;;;;5056623;28;20194;-65
2022/03/12 00:04:41;;;;;;;84.80;12.03;;;;;;;;;;5051380;28;20298;-66
2022/03/12 00:07:11;;;;;;;54.93;9.13;;;;;;;;;;5054601;28;20199;-65
2022/03/12 00:09:37;;;;;;;46.37;7.93;;;;;;;;;;5059309;28;20241;-66
2022/03/12 00:12:03;;;;;;;89.53;12.77;;;;;;;;;;5054645;28;20183;-66
2022/03/12 00:14:30;;;;;;;112.27;15.17;;;;;;;;;;5050671;28;20885;-66
2022/03/12 00:16:56;;;;;;;47.53;8.27;;;;;;;;;;5059028;28;20922;-66
2022/03/12 00:19:21;;;;;;;51.03;8.67;;;;;;;;;;5056237;28;20209;-65
2022/03/12 00:21:48;;;;;;;106.17;15.00;;;;;;;;;;5048826;28;20183;-65
2022/03/12 00:24:15;;;;;;;56.53;9.37;;;;;;;;;;5039359;28;20274;-65
2022/03/12 00:26:41;;;;;;;97.50;14.17;;;;;;;;;;5048360;28;20237;-66
2022/03/12 00:29:14;;;;;;;58.07;9.43;;;;;;;;;;5056104;28;20207;-66
2022/03/12 00:31:44;;;;;;;73.63;11.40;;;;;;;;;;5057685;28;20260;-66
2022/03/12 00:34:10;;;;;;;75.83;11.87;;;;;;;;;;5054876;28;20198;-66
2022/03/12 00:36:36;;;;;;;84.23;12.77;;;;;;;;;;5047837;28;20190;-66
2022/03/12 00:39:03;;;;;;;129.83;17.53;;;;;;;;;;5055585;28;20206;-66
2022/03/12 00:41:29;;;;;;;95.03;13.83;;;;;;;;;;5048248;28;20267;-65
2022/03/12 00:43:55;;;;;;;53.17;9.03;;;;;;;;;;5054384;28;20663;-66
2022/03/12 00:46:22;;;;;;;96.87;13.67;;;;;;;;;;5050173;28;20260;-65
2022/03/12 00:48:48;;;;;;;106.10;15.33;;;;;;;;;;5051358;28;20284;-65
2022/03/12 00:51:14;;;;;;;59.10;9.43;;;;;;;;;;5052199;28;20198;-65
2022/03/12 00:53:41;;;;;;;79.10;11.63;;;;;;;;;;5054851;28;20235;-65
2022/03/12 00:56:07;;;;;;;93.40;13.27;;;;;;;;;;5052289;28;20183;-66
2022/03/12 00:58:35;;;;;;;110.47;15.63;;;;;;;;;;5033437;28;20237;-65
2022/03/12 01:01:01;;;;;;;79.20;12.07;;;;;;;;;;5052026;28;20266;-66
2022/03/12 01:03:27;;;;;;;71.83;11.40;;;;;;;;;;5040712;28;20199;-65
2022/03/12 01:05:56;;;;;;;130.40;17.90;;;;;;;;;;5052593;28;20187;-66
2022/03/12 01:08:23;;;;;;;66.73;10.93;;;;;;;;;;5058050;28;20211;-65
2022/03/12 01:10:50;;;;;;;124.33;17.23;;;;;;;;;;5033894;28;20186;-66
2022/03/12 01:13:16;;;;;;;86.27;12.77;;;;;;;;;;5053048;28;20408;-66
2022/03/12 01:15:42;;;;;;;101.07;13.80;;;;;;;;;;5049556;28;20194;-65
2022/03/12 01:18:10;;;;;;;50.77;8.87;;;;;;;;;;5040182;28;21613;-65
2022/03/12 01:20:36;;;;;;;65.10;10.40;;;;;;;;;;5051628;28;20641;-66
2022/03/12 01:23:01;;;;;;;69.27;10.67;;;;;;;;;;5055221;28;20236;-65
2022/03/12 01:25:28;;;;;;;46.43;8.60;;;;;;;;;;5057921;28;20198;-65
2022/03/12 01:27:54;;;;;;;105.53;15.23;;;;;;;;;;5048615;28;20284;-66
2022/03/12 01:30:29;;;;;;;73.73;11.60;;;;;;;;;;5052507;28;20664;-66
2022/03/12 01:32:55;;;;;;;79.73;11.80;;;;;;;;;;5051336;28;20305;-65
2022/03/12 01:35:21;;;;;;;80.77;11.73;;;;;;;;;;5049237;28;20187;-66
2022/03/12 01:37:47;;;;;;;111.43;15.77;;;;;;;;;;5050266;28;20205;-65
2022/03/12 01:40:14;;;;;;;63.23;10.47;;;;;;;;;;5055424;28;20188;-66
2022/03/12 01:42:40;;;;;;;86.17;12.57;;;;;;;;;;5034992;28;20191;-66
2022/03/12 01:45:09;;;;;;;69.63;11.17;;;;;;;;;;5050562;28;20679;-65
2022/03/12 01:47:35;;;;;;;72.50;11.60;;;;;;;;;;5054242;28;20203;-65
2022/03/12 01:50:01;;;;;;;72.63;11.23;;;;;;;;;;5053128;28;20194;-65
2022/03/12 01:52:28;;;;;;;105.23;14.50;;;;;;;;;;5030839;28;20183;-66
2022/03/12 01:54:55;;;;;;;84.00;12.90;;;;;;;;;;5052718;28;20568;-66
2022/03/12 01:57:22;;;;;;;47.83;8.50;;;;;;;;;;5050276;28;20227;-65
2022/03/12 01:59:48;;;;;;;80.70;11.50;;;;;;;;;;5051343;28;20175;-66
2022/03/12 02:02:15;;;;;;;52.57;9.37;;;;;;;;;;5056895;28;20178;-65
2022/03/12 02:04:42;;;;;;;89.10;13.47;;;;;;;;;;5052364;28;20191;-65
2022/03/12 02:07:08;;;;;;;69.67;11.13;;;;;;;;;;5053155;28;20180;-65
2022/03/12 02:09:34;;;;;;;87.87;13.10;;;;;;;;;;5051010;28;20186;-65
2022/03/12 02:12:00;;;;;;;55.80;9.73;;;;;;;;;;5049050;28;20186;-65
2022/03/12 02:14:27;;;;;;;48.60;8.23;;;;;;;;;;5044210;28;20211;-66
2022/03/12 02:16:53;;;;;;;83.70;12.80;;;;;;;;;;5054745;28;20525;-65
2022/03/12 02:19:20;;;;;;;39.10;7.80;;;;;;;;;;5052788;28;20199;-66
2022/03/12 02:21:53;;;;;;;72.17;11.23;;;;;;;;;;5048872;28;20229;-66
2022/03/12 02:24:20;;;;;;;68.17;10.30;;;;;;;;;;5048075;28;20248;-66
2022/03/12 02:26:47;;;;;;;113.03;15.27;;;;;;;;;;5049163;28;20188;-66
2022/03/12 02:29:20;;;;;;;61.70;9.93;;;;;;;;;;5053918;28;20198;-66
2022/03/12 02:31:48;;;;;;;98.60;14.47;;;;;;;;;;5033012;28;20703;-66
2022/03/12 02:34:14;;;;;;;59.20;10.30;;;;;;;;;;5052262;28;20866;-66
2022/03/12 02:36:40;;;;;;;70.77;10.93;;;;;;;;;;5051890;28;20191;-66
2022/03/12 02:39:07;;;;;;;85.83;12.30;;;;;;;;;;5050754;28;20645;-65
2022/03/12 02:41:33;;;;;;;83.07;12.20;;;;;;;;;;5054045;28;20787;-65
2022/03/12 02:43:59;;;;;;;71.00;10.97;;;;;;;;;;5050628;28;20274;-65
2022/03/12 02:46:29;;;;;;;96.23;14.17;;;;;;;;;;5050808;28;20274;-66
2022/03/12 02:48:56;;;;;;;50.20;8.60;;;;;;;;;;5048972;28;20520;-65
2022/03/12 02:51:22;;;;;;;86.93;12.93;;;;;;;;;;5044702;28;20205;-66
2022/03/12 02:53:55;;;;;;;89.13;13.40;;;;;;;;;;5051545;28;20644;-66
2022/03/12 02:56:21;;;;;;;101.47;13.83;;;;;;;;;;5033344;28;20751;-65
2022/03/12 02:58:47;;;;;;;86.30;12.37;;;;;;;;;;5057103;28;20213;-66
2022/03/12 03:01:16;;;;;;;69.17;11.30;;;;;;;;;;5051459;28;20183;-66
2022/03/12 03:03:43;;;;;;;76.20;11.73;;;;;;;;;;5055935;28;20182;-66
2022/03/12 03:06:09;;;;;;;73.47;10.90;;;;;;;;;;5049014;28;20271;-65
2022/03/12 03:08:39;;;;;;;78.73;12.27;;;;;;;;;;5033020;28;20200;-66
2022/03/12 03:11:09;;;;;;;83.57;12.80;;;;;;;;;;5051623;28;20172;-65
2022/03/12 03:13:36;;;;;;;86.57;12.23;;;;;;;;;;5055629;28;20264;-65
2022/03/12 03:16:06;;;;;;;72.87;11.03;;;;;;;;;;5052682;28;20186;-66
2022/03/12 03:18:33;;;;;;;61.03;10.37;;;;;;;;;;5053749;28;20249;-65
2022/03/12 03:20:59;;;;;;;86.37;12.63;;;;;;;;;;5049826;28;20203;-65
2022/03/12 03:23:26;;;;;;;98.87;14.20;;;;;;;;;;5052354;28;20905;-65
2022/03/12 03:25:53;;;;;;;164.10;21.40;;;;;;;;;;5048019;28;20814;-65
2022/03/12 03:28:19;;;;;;;42.83;8.33;;;;;;;;;;5052578;28;20726;-65
2022/03/12 03:30:45;;;;;;;75.57;11.97;;;;;;;;;;5054017;28;20198;-65
2022/03/12 03:33:14;;;;;;;102.27;14.03;;;;;;;;;;5052762;28;20206;-66
2022/03/12 03:35:40;;;;;;;86.60;13.40;;;;;;;;;;5055374;28;20211;-65
2022/03/12 03:38:06;;;;;;;63.07;10.27;;;;;;;;;;5053587;28;20818;-65
2022/03/12 03:40:32;;;;;;;82.40;12.87;;;;;;;;;;5055594;28;20214;-65
2022/03/12 03:42:58;;;;;;;90.90;13.63;;;;;;;;;;5037887;28;20694;-65
2022/03/12 03:45:27;;;;;;;60.90;10.43;;;;;;;;;;5053321;28;20668;-65
2022/03/12 03:47:53;;;;;;;98.57;13.57;;;;;;;;;;5038663;28;20207;-65
2022/03/12 03:50:20;;;;;;;131.43;17.03;;;;;;;;;;5036112;28;20682;-66
2022/03/12 03:52:46;;;;;;;89.00;14.07;;;;;;;;;;5058430;28;20214;-65
2022/03/12 03:55:13;;;;;;;71.50;11.67;;;;;;;;;;5051621;28;20180;-65
2022/03/12 03:57:39;;;;;;;87.70;13.40;;;;;;;;;;5037674;28;20572;-65
2022/03/12 04:00:05;;;;;;;124.37;17.47;;;;;;;;;;5053275;28;20234;-65
2022/03/12 04:02:32;;;;;;;75.43;11.90;;;;;;;;;;5056188;28;20223;-65
2022/03/12 04:04:57;;;;;;;79.50;12.60;;;;;;;;;;5054250;28;20189;-66
2022/03/12 04:07:23;;;;;;;51.43;9.47;;;;;;;;;;5053105;28;20794;-65
2022/03/12 04:09:49;;;;;;;102.63;14.97;;;;;;;;;;5057264;28;20222;-65
2022/03/12 04:12:15;;;;;;;80.13;12.77;;;;;;;;;;5055417;28;20603;-66
2022/03/12 04:14:41;;;;;;;114.87;16.67;;;;;;;;;;5052958;28;20211;-66
2022/03/12 04:17:07;;;;;;;77.33;12.33;;;;;;;;;;5055277;28;20210;-65
2022/03/12 04:19:34;;;;;;;72.13;11.93;;;;;;;;;;5057263;28;20721;-65
2022/03/12 04:22:01;;;;;;;96.80;14.23;;;;;;;;;;5053677;28;20647;-65
2022/03/12 04:24:27;;;;;;;47.07;8.30;;;;;;;;;;5041658;28;20271;-65
2022/03/12 04:26:53;;;;;;;78.23;11.70;;;;;;;;;;5051861;28;20187;-66
2022/03/12 04:29:19;;;;;;;80.63;12.40;;;;;;;;;;5056527;28;20214;-65
2022/03/12 04:31:47;;;;;;;86.67;13.93;;;;;;;;;;5054934;28;20191;-65
2022/03/12 04:34:13;;;;;;;128.33;17.20;;;;;;;;;;5052257;28;20215;-65
2022/03/12 04:36:41;;;;;;;117.23;17.50;;;;;;;;;;5050859;28;20182;-65
2022/03/12 04:39:07;;;;;;;97.87;14.07;;;;;;;;;;5056465;28;20233;-65
2022/03/12 04:41:35;;;;;;;90.07;14.43;;;;;;;;;;5051336;28;20286;-65
2022/03/12 04:44:01;;;;;;;74.73;11.57;;;;;;;;;;5054980;28;20631;-65
2022/03/12 04:46:27;;;;;;;98.07;15.23;;;;;;;;;;5036966;28;20202;-66
2022/03/12 04:48:54;;;;;;;123.53;18.37;;;;;;;;;;5050133;28;20572;-65
2022/03/12 04:51:20;;;;;;;72.53;12.37;;;;;;;;;;5053353;28;20253;-65
2022/03/12 04:53:46;;;;;;;109.50;16.93;;;;;;;;;;5051090;28;20606;-65
2022/03/12 04:56:12;;;;;;;111.10;16.63;;;;;;;;;;5050884;28;20190;-65
2022/03/12 04:58:38;;;;;;;83.77;13.67;;;;;;;;;;5054479;28;20199;-65
2022/03/12 05:01:06;;;;;;;99.13;14.97;;;;;;;;;;5052970;28;20262;-65
2022/03/12 05:03:32;;;;;;;122.77;17.23;;;;;;;;;;5053061;28;20956;-65
2022/03/12 05:06:02;;;;;;;86.23;13.50;;;;;;;;;;5051193;28;20553;-65
2022/03/12 05:08:28;;;;;;;93.63;14.13;;;;;;;;;;5057840;28;20675;-66
2022/03/12 05:10:55;;;;;;;141.17;18.47;;;;;;;;;;5035229;28;20183;-65
2022/03/12 05:13:23;;;;;;;70.27;10.57;;;;;;;;;;5047716;28;20214;-66
2022/03/12 05:15:50;;;;;;;93.70;14.20;;;;;;;;;;5052964;28;20294;-65
2022/03/12 05:18:17;;;;;;;52.00;9.63;;;;;;;;;;5041339;28;20290;-65
2022/03/12 05:20:43;;;;;;;110.87;15.00;;;;;;;;;;5049793;28;20176;-66
2022/03/12 05:23:09;;;;;;;76.87;12.17;;;;;;;;;;5053728;28;20564;-65
2022/03/12 05:25:42;;;;;;;102.77;15.03;;;;;;;;;;5055803;28;20698;-66
2022/03/12 05:28:08;;;;;;;91.87;13.37;;;;;;;;;;5038622;28;20695;-65
2022/03/12 05:30:34;;;;;;;114.93;15.43;;;;;;;;;;5050525;28;20321;-65
2022/03/12 05:33:00;;;;;;;77.50;11.50;;;;;;;;;;5035076;28;22422;-65
2022/03/12 05:35:26;;;;;;;77.27;11.80;;;;;;;;;;5053656;28;20330;-65
2022/03/12 05:37:53;;;;;;;72.30;11.53;;;;;;;;;;5056116;28;20199;-65
2022/03/12 05:40:26;;;;;;;58.63;9.20;;;;;;;;;;5038851;28;20187;-66
2022/03/12 05:42:55;;;;;;;95.27;13.23;;;;;;;;;;5049762;28;20186;-66
2022/03/12 05:45:21;;;;;;;53.90;9.17;;;;;;;;;;5052350;28;20195;-66
2022/03/12 05:47:49;;;;;;;124.20;16.53;;;;;;;;;;5036718;28;20206;-65
2022/03/12 05:50:15;;;;;;;70.37;10.90;;;;;;;;;;5033615;28;20210;-65
2022/03/12 05:52:45;;;;;;;92.27;13.73;;;;;;;;;;5058734;28;20261;-65
2022/03/12 05:55:12;;;;;;;94.03;13.40;;;;;;;;;;5052121;28;20597;-65
2022/03/12 05:57:38;;;;;;;67.87;10.80;;;;;;;;;;5035568;28;20210;-65
2022/03/12 06:00:05;;;;;;;74.87;11.10;;;;;;;;;;5054738;28;20180;-66
2022/03/12 06:02:32;;;;;;;81.33;12.03;;;;;;;;;;5054874;28;20190;-65
2022/03/12 06:04:58;;;;;;;105.23;14.20;;;;;;;;;;5054272;28;20182;-65
2022/03/12 06:07:27;;;;;;;73.83;10.70;;;;;;;;;;5053004;28;20833;-65
2022/03/12 06:09:53;;;;;;;114.40;15.97;;;;;;;;;;5051620;28;20187;-65
2022/03/12 06:12:20;;;;;;;80.53;12.13;;;;;;;;;;5049921;28;20885;-65
2022/03/12 06:14:52;;;;;;;81.47;12.53;;;;;;;;;;5055818;28;20245;-65
2022/03/12 06:17:19;;;;;;;52.70;9.30;;;;;;;;;;5053334;28;20285;-66
2022/03/12 06:19:45;;;;;;;119.97;16.10;;;;;;;;;;5056017;28;20182;-66
2022/03/12 06:22:12;;;;;;;107.17;15.53;;;;;;;;;;5042857;28;20209;-65
2022/03/12 06:24:38;;;;;;;91.73;13.93;;;;;;;;;;5050890;28;20182;-66
2022/03/12 06:27:04;;;;;;;90.93;14.03;;;;;;;;;;5048113;28;20191;-66
2022/03/12 06:29:30;;;;;;;102.23;14.67;;;;;;;;;;5051454;28;20294;-65
2022/03/12 06:31:56;;;;;;;94.93;14.00;;;;;;;;;;5048493;28;20711;-66
2022/03/12 06:34:22;;;;;;;95.23;14.47;;;;;;;;;;5049090;28;20858;-66
2022/03/12 06:36:50;;;;;;;94.83;14.50;;;;;;;;;;5044765;28;20210;-65
2022/03/12 06:39:16;;;;;;;59.43;10.53;;;;;;;;;;5047226;28;20234;-66
2022/03/12 06:41:45;;;;;;;69.20;12.30;;;;;;;;;;5053064;28;20213;-65
2022/03/12 06:44:12;;;;;;;78.87;12.77;;;;;;;;;;5057820;28;20214;-67
2022/03/12 06:46:38;;;;;;;98.30;15.27;;;;;;;;;;5051700;28;20194;-67
2022/03/12 06:49:05;;;;;;;97.97;15.13;;;;;;;;;;5031234;28;20206;-67
2022/03/12 06:51:31;;;;;;;57.50;10.83;;;;;;;;;;5033677;28;20213;-66
2022/03/12 06:53:58;;;;;;;75.03;12.47;;;;;;;;;;5049460;28;20990;-74
2022/03/12 06:56:24;;;;;;;124.87;17.47;;;;;;;;;;5033159;28;20300;-74
2022/03/12 06:58:49;;;;;;;162.40;21.57;;;;;;;;;;5040559;28;20214;-75
2022/03/12 07:01:15;;;;;;;98.43;15.17;;;;;;;;;;5046674;28;20258;-75
2022/03/12 07:03:42;;;;;;;109.80;16.73;;;;;;;;;;5040573;28;20644;-70
2022/03/12 07:06:09;;;;;;;49.73;10.60;;;;;;;;;;5043261;28;20297;-71
2022/03/12 07:08:36;;;;;;;128.33;18.77;;;;;;;;;;5054752;28;20215;-72
2022/03/12 07:11:02;;;;;;;125.80;18.53;;;;;;;;;;5053435;28;20372;-71
2022/03/12 07:13:28;;;;;;;85.87;13.60;;;;;;;;;;5054962;28;20215;-72
2022/03/12 07:15:54;;;;;;;119.20;17.37;;;;;;;;;;5039224;28;20330;-72
2022/03/12 07:18:20;;;;;;;126.27;18.37;;;;;;;;;;5055396;28;20404;-70
2022/03/12 07:20:47;;;;;;;91.97;15.17;;;;;;;;;;5048583;28;20195;-69
2022/03/12 07:23:13;;;;;;;85.77;15.03;;;;;;;;;;5058182;28;20183;-76
2022/03/12 07:25:39;;;;;;;195.20;27.13;;;;;;;;;;5031989;28;20194;-71
2022/03/12 07:28:05;;;;;;;77.33;13.67;;;;;;;;;;5034843;28;20218;-72
2022/03/12 07:30:32;;;;;;;70.90;12.43;;;;;;;;;;5042559;28;20180;-71
2022/03/12 07:32:58;;;;;;;70.27;12.50;;;;;;;;;;5059060;28;20198;-71
2022/03/12 07:35:26;;;;;;;52.93;10.63;;;;;;;;;;5054989;28;20180;-69
2022/03/12 07:37:53;;;;;;;124.27;19.27;;;;;;;;;;5050744;28;20206;-70
2022/03/12 07:40:19;;;;;;;70.43;12.27;;;;;;;;;;5044173;28;20228;-73
2022/03/12 07:42:46;;;;;;;139.60;19.13;;;;;;;;;;5046643;28;20241;-66
2022/03/12 07:45:12;;;;;;;111.67;17.10;;;;;;;;;;5047664;28;20281;-69
2022/03/12 07:47:38;;;;;;;129.40;19.13;;;;;;;;;;5053104;28;20219;-72
2022/03/12 07:50:05;;;;;;;90.97;14.90;;;;;;;;;;5037074;28;23230;-70
2022/03/12 07:52:31;;;;;;;49.20;10.33;;;;;;;;;;5039696;28;20193;-69
2022/03/12 07:54:57;;;;;;;66.83;12.17;;;;;;;;;;5040900;28;20199;-69
2022/03/12 07:57:26;;;;;;;108.33;16.40;;;;;;;;;;5049841;28;20203;-70
2022/03/12 07:59:53;;;;;;;150.53;21.90;;;;;;;;;;5035080;28;20819;-69
2022/03/12 08:02:19;;;;;;;119.73;17.93;;;;;;;;;;5050308;28;20202;-69
2022/03/12 08:04:45;;;;;;;103.57;16.73;;;;;;;;;;5055032;28;20185;-69
2022/03/12 08:07:11;;;;;;;78.27;13.97;;;;;;;;;;5057545;28;20270;-70
2022/03/12 08:09:37;;;;;;;91.80;14.97;;;;;;;;;;5051657;28;20278;-69
2022/03/12 08:12:03;;;;;;;74.37;12.73;;;;;;;;;;5050553;28;20252;-69
2022/03/12 08:14:31;;;;;;;83.90;14.47;;;;;;;;;;5038668;28;20217;-69
2022/03/12 08:16:57;;;;;;;139.90;19.50;;;;;;;;;;5032585;28;20183;-69
2022/03/12 08:19:24;;;;;;;79.57;14.13;;;;;;;;;;5048389;28;20187;-69
2022/03/12 08:21:51;;;;;;;120.67;17.73;;;;;;;;;;5048840;28;20210;-68
2022/03/12 08:24:18;;;;;;;41.50;9.57;;;;;;;;;;5059033;28;20194;-68
2022/03/12 08:26:45;;;;;;;71.90;12.00;;;;;;;;;;5060011;28;20581;-69
2022/03/12 08:29:11;;;;;;;63.07;11.33;;;;;;;;;;5054271;28;20206;-69
2022/03/12 08:31:38;;;;;;;127.57;19.57;;;;;;;;;;5058373;28;20277;-69
2022/03/12 08:34:04;;;;;;;60.90;10.60;;;;;;;;;;5053084;28;20195;-69
2022/03/12 08:36:30;;;;;;;54.07;11.47;;;;;;;;;;5062661;28;20187;-69
2022/03/12 08:38:56;;;;;;;87.57;15.17;;;;;;;;;;5062899;28;20827;-69
2022/03/12 08:41:22;;;;;;;57.20;11.70;;;;;;;;;;5062521;28;20243;-69
2022/03/12 08:43:49;;;;;;;68.17;12.83;;;;;;;;;;5041950;28;20237;-69
2022/03/12 08:46:15;;;;;;;62.93;12.87;;;;;;;;;;5065906;28;20222;-69
2022/03/12 08:48:42;;;;;;;90.93;16.03;;;;;;;;;;5063836;28;20247;-70
2022/03/12 08:51:08;;;;;;;52.00;11.60;;;;;;;;;;5054520;28;20183;-69
2022/03/12 08:53:34;;;;;;;89.53;14.20;;;;;;;;;;5052568;28;20207;-69
2022/03/12 08:56:01;;;;;;;87.67;15.37;;;;;;;;;;5060221;28;20183;-70
2022/03/12 08:58:31;;;;;;;54.40;10.23;;;;;;;;;;5059984;28;20546;-69
2022/03/12 09:01:00;;;;;;;53.73;10.83;;;;;;;;;;5052688;28;20897;-70
2022/03/12 09:03:26;;;;;;;106.97;17.67;;;;;;;;;;5044276;28;20191;-70
2022/03/12 09:05:52;;;;;;;85.13;14.43;;;;;;;;;;5047238;28;20644;-71
2022/03/12 09:08:19;;;;;;;143.43;21.87;;;;;;;;;;5031824;28;20218;-68
2022/03/12 09:10:45;;;;;;;171.83;25.77;;;;;;;;;;5028587;28;20244;-71
2022/03/12 09:13:13;;;;;;;164.20;25.23;;;;;;;;;;5052167;28;20206;-75
2022/03/12 09:15:39;;;;;;;121.90;19.77;;;;;;;;;;5037050;28;20175;-74
2022/03/12 09:18:06;;;;;;;125.30;19.20;;;;;;;;;;5047801;28;20199;-70
2022/03/12 09:20:36;;;;;;;110.97;17.33;;;;;;;;;;5043279;28;22452;-70
2022/03/12 09:23:02;;;;;;;101.07;17.43;;;;;;;;;;5048450;28;20171;-70
2022/03/12 09:25:28;;;;;;;113.50;18.80;;;;;;;;;;5048421;28;20645;-70
2022/03/12 09:27:54;;;;;;;159.03;23.87;;;;;;;;;;5043138;28;20206;-70
2022/03/12 09:30:20;;;;;;;119.47;18.90;;;;;;;;;;5047238;28;20210;-70
2022/03/12 09:32:46;;;;;;;90.57;16.03;;;;;;;;;;5039161;28;20210;-70
2022/03/12 09:35:14;;;;;;;69.20;13.27;;;;;;;;;;5057451;28;20376;-69
2022/03/12 09:37:40;;;;;;;76.23;14.70;;;;;;;;;;5040573;28;20248;-70
2022/03/12 09:40:06;;;;;;;87.70;15.63;;;;;;;;;;5044845;28;20175;-70
2022/03/12 09:42:32;;;;;;;70.80;12.80;;;;;;;;;;5047234;28;20183;-70
2022/03/12 09:44:59;;;;;;;108.50;17.33;;;;;;;;;;5042291;28;20335;-69
2022/03/12 09:47:25;;;;;;;104.80;17.17;;;;;;;;;;5051756;28;20671;-70
2022/03/12 09:49:51;;;;;;;102.57;16.37;;;;;;;;;;5057966;28;20201;-70
2022/03/12 09:52:17;;;;;;;86.37;14.50;;;;;;;;;;5040451;28;20273;-70
2022/03/12 09:54:43;;;;;;;78.43;14.47;;;;;;;;;;5047233;28;20704;-70
2022/03/12 09:57:09;;;;;;;115.47;18.80;;;;;;;;;;5045150;28;20179;-70
2022/03/12 09:59:35;;;;;;;65.00;12.97;;;;;;;;;;5050284;28;20225;-69
2022/03/12 10:02:02;;;;;;;71.43;14.23;;;;;;;;;;5036527;28;20206;-70
2022/03/12 10:04:31;;;;;;;65.83;12.87;;;;;;;;;;5052609;28;20179;-69
2022/03/12 10:06:58;;;;;;;57.37;11.57;;;;;;;;;;5040310;28;20621;-70
2022/03/12 10:09:24;;;;;;;95.37;17.10;;;;;;;;;;5060866;28;20175;-70
2022/03/12 10:11:51;;;;;;;105.80;18.50;;;;;;;;;;5048242;28;20179;-69
2022/03/12 10:14:17;;;;;;;101.13;17.17;;;;;;;;;;5052528;28;20529;-71
2022/03/12 10:16:43;;;;;;;107.43;17.53;;;;;;;;;;5051605;28;20171;-71
2022/03/12 10:19:10;;;;;;;80.40;14.63;;;;;;;;;;5034839;28;20199;-71
2022/03/12 10:21:42;;;;;;;67.23;13.60;;;;;;;;;;5053885;28;20179;-71
2022/03/12 10:24:08;;;;;;;59.27;11.73;;;;;;;;;;5054359;28;20254;-70
2022/03/12 10:26:34;;;;;;;121.67;20.03;;;;;;;;;;5049479;28;20205;-72
2022/03/12 10:29:00;;;;;;;70.67;14.23;;;;;;;;;;5036934;28;20245;-72
2022/03/12 10:31:28;;;;;;;151.87;24.03;;;;;;;;;;5048281;28;20613;-74
2022/03/12 10:34:13;;;;;;;107.13;18.93;;;;;;;;;;5047821;28;20293;-67
2022/03/12 10:36:40;;;;;;;114.13;18.20;;;;;;;;;;5042759;28;20665;-69
2022/03/12 10:39:06;;;;;;;85.13;14.87;;;;;;;;;;5047743;28;20299;-68
2022/03/12 10:41:32;;;;;;;104.73;17.30;;;;;;;;;;5048692;28;20187;-71
2022/03/12 10:43:58;;;;;;;94.40;15.97;;;;;;;;;;5042535;28;20194;-68
2022/03/12 10:46:28;;;;;;;109.23;17.57;;;;;;;;;;5048361;28;20182;-69
2022/03/12 10:48:56;;;;;;;114.30;19.50;;;;;;;;;;5045536;28;20317;-70
2022/03/12 10:51:25;;;;;;;141.03;22.03;;;;;;;;;;5043980;28;20609;-69
2022/03/12 10:53:52;;;;;;;140.07;22.30;;;;;;;;;;5028823;28;20214;-69
2022/03/12 10:56:19;;;;;;;126.97;20.13;;;;;;;;;;5046703;28;20226;-69
2022/03/12 10:58:45;;;;;;;81.77;14.77;;;;;;;;;;5034226;28;20321;-70
2022/03/12 11:01:11;;;;;;;74.20;13.57;;;;;;;;;;5050257;28;20604;-69
2022/03/12 11:03:37;;;;;;;66.73;13.77;;;;;;;;;;5047797;28;20206;-69
2022/03/12 11:06:05;;;;;;;92.53;16.97;;;;;;;;;;5041722;28;20253;-68
2022/03/12 11:08:31;;;;;;;85.60;15.57;;;;;;;;;;5049386;28;20325;-68
2022/03/12 11:11:14;;;;;;;168.00;25.07;;;;;;;;;;5045951;28;20631;-69
2022/03/12 11:13:47;;;;;;;87.80;16.27;;;;;;;;;;5049666;28;20304;-68
2022/03/12 11:16:19;;;;;;;71.33;14.60;;;;;;;;;;5053253;28;20182;-69
2022/03/12 11:18:51;;;;;;;111.03;18.00;;;;;;;;;;5052096;28;20210;-68
2022/03/12 11:21:27;;;;;;;88.40;15.20;;;;;;;;;;5055649;28;20187;-68
2022/03/12 11:23:54;;;;;;;120.43;19.67;;;;;;;;;;5046718;28;20205;-68
2022/03/12 11:26:20;;;;;;;117.53;20.20;;;;;;;;;;5043221;28;20198;-67
2022/03/12 11:28:56;;;;;;;105.93;18.63;;;;;;;;;;5047867;28;20931;-71
2022/03/12 11:31:37;;;;;;;90.50;16.50;;;;;;;;;;5028697;28;20230;-66
2022/03/12 11:34:12;;;;;;;91.97;16.57;;;;;;;;;;5054337;28;20718;-64
2022/03/12 11:36:41;;;;;;;136.17;21.90;;;;;;;;;;5045475;28;20256;-66
2022/03/12 11:39:07;;;;;;;99.03;17.90;;;;;;;;;;5032705;28;20227;-66
2022/03/12 11:41:37;;;;;;;132.80;22.60;;;;;;;;;;5044064;28;20266;-68
2022/03/12 11:44:07;;;;;;;99.70;16.93;;;;;;;;;;5047990;28;20189;-69
2022/03/12 11:46:33;;;;;;;103.50;18.43;;;;;;;;;;5046891;28;20194;-67
2022/03/12 11:48:59;;;;;;;183.30;28.53;;;;;;;;;;5047167;28;20206;-68
2022/03/12 11:51:26;;;;;;;105.90;18.53;;;;;;;;;;5037396;28;20194;-67
2022/03/12 11:53:53;;;;;;;132.53;24.13;;;;;;;;;;5042813;28;20286;-65
2022/03/12 11:56:24;;;;;;;129.63;25.87;;;;;;;;;;5048860;28;20188;-74
2022/03/12 11:58:49;;;;;;;114.77;23.20;;;;;;;;;;5055175;28;20205;-68
2022/03/12 12:01:22;;;;;;;130.30;25.90;;;;;;;;;;5044059;28;20187;-70
2022/03/12 12:03:49;;;;;;;242.67;54.57;;;;;;;;;;5046658;28;20187;-67
2022/03/12 12:06:15;;;;;;;114.53;33.27;;;;;;;;;;5049948;28;20309;-67
2022/03/12 12:08:42;;;;;;;190.23;37.03;;;;;;;;;;5046010;28;22139;-67
2022/03/12 12:11:08;;;;;;;102.73;20.20;;;;;;;;;;5053755;28;20202;-67
2022/03/12 12:13:34;;;;;;;65.80;15.30;;;;;;;;;;5052222;28;20201;-66
2022/03/12 12:16:01;;;;;;;120.70;22.60;;;;;;;;;;5035942;28;20443;-66
2022/03/12 12:18:27;;;;;;;109.87;22.57;;;;;;;;;;5048777;28;20207;-67
2022/03/12 12:20:53;;;;;;;97.30;21.07;;;;;;;;;;5049434;28;20188;-67
2022/03/12 12:23:19;;;;;;;123.23;23.90;;;;;;;;;;5051242;28;20202;-66
2022/03/12 12:25:46;;;;;;;131.20;26.80;;;;;;;;;;5049908;28;20298;-67
2022/03/12 12:28:16;;;;;;;89.53;19.53;;;;;;;;;;5040696;28;20208;-66
2022/03/12 12:30:43;;;;;;;93.77;20.50;;;;;;;;;;5058521;28;20219;-66
2022/03/12 12:33:26;;;;;;;109.93;22.07;;;;;;;;;;5058402;28;20201;-66
2022/03/12 12:36:13;;;;;;;93.33;21.00;;;;;;;;;;5059528;28;20182;-66
2022/03/12 12:38:43;;;;;;;97.87;22.20;;;;;;;;;;5054662;28;20260;-66
2022/03/12 12:41:10;;;;;;;129.83;24.67;;;;;;;;;;5039406;28;20284;-66
2022/03/12 12:43:42;;;;;;;130.53;25.07;;;;;;;;;;5046398;28;20290;-66
2022/03/12 12:46:09;;;;;;;64.53;15.13;;;;;;;;;;5056198;28;20189;-67
2022/03/12 12:48:40;;;;;;;68.00;15.17;;;;;;;;;;5056328;28;20203;-75
2022/03/12 12:51:11;;;;;;;110.83;20.37;;;;;;;;;;5049984;28;20251;-73
2022/03/12 12:53:38;;;;;;;106.63;19.53;;;;;;;;;;5047610;28;20210;-75
2022/03/12 12:56:21;;;;;;;138.77;24.97;;;;;;;;;;5033543;28;20198;-77
2022/03/12 12:58:53;;;;;;;144.30;24.87;;;;;;;;;;5048565;28;20613;-73
2022/03/12 13:01:43;;;;;;;68.47;14.60;;;;;;;;;;5053012;28;20201;-72
2022/03/12 13:04:10;;;;;;;69.90;12.83;;;;;;;;;;5028631;28;20198;-72
2022/03/12 13:06:45;;;;;;;62.50;13.03;;;;;;;;;;5057375;28;20222;-74
2022/03/12 13:09:17;;;;;;;62.53;13.40;;;;;;;;;;5052358;28;20692;-73
2022/03/12 13:11:47;;;;;;;85.90;16.40;;;;;;;;;;5038454;28;20205;-72
2022/03/12 13:14:18;;;;;;;105.27;19.10;;;;;;;;;;5055185;28;20203;-74
2022/03/12 13:16:56;;;;;;;84.00;15.30;;;;;;;;;;5045867;28;20606;-72
2022/03/12 13:19:28;;;;;;;93.47;31.63;;;;;;;;;;5053638;28;20849;-74
2022/03/12 13:22:04;;;;;;;152.83;24.17;;;;;;;;;;5026878;28;20274;-74
2022/03/12 13:24:32;;;;;;;82.17;15.27;;;;;;;;;;5044940;28;20577;-74
2022/03/12 13:27:02;;;;;;;74.73;15.40;;;;;;;;;;5036918;28;20191;-75
2022/03/12 13:29:29;;;;;;;75.30;15.53;;;;;;;;;;5055369;28;20274;-74
2022/03/12 13:31:55;;;;;;;48.03;10.30;;;;;;;;;;5048077;28;20703;-75
2022/03/12 13:34:22;;;;;;;66.73;14.97;;;;;;;;;;5061898;28;20251;-75
2022/03/12 13:36:49;;;;;;;114.70;19.33;;;;;;;;;;5053653;28;20732;-76
2022/03/12 13:39:15;;;;;;;58.40;13.27;;;;;;;;;;5058624;28;20198;-73
2022/03/12 13:41:44;;;;;;;99.57;21.40;;;;;;;;;;5041806;28;20366;-74
2022/03/12 13:44:11;;;;;;;61.97;15.50;;;;;;;;;;5060188;28;20179;-76
2022/03/12 13:46:37;;;;;;;62.05;14.25;;;;;;;;;;5063093;28;20660;-74
2022/03/12 13:49:03;;;;;;;68.93;15.43;;;;;;;;;;5061643;28;20211;-75
2022/03/12 13:51:30;;;;;;;64.90;14.98;;;;;;;;;;5057204;28;20329;-75
2022/03/12 13:53:57;;;;;;;56.55;13.27;;;;;;;;;;5059101;28;20322;-74
2022/03/12 13:56:24;;;;;;;46.78;11.57;;;;;;;;;;5058062;28;20227;-74
2022/03/12 13:58:51;;;;;;;104.07;18.85;;;;;;;;;;5056826;28;20282;-74
2022/03/12 14:01:31;;;;;;;59.88;13.65;;;;;;;;;;5057540;28;20249;-74
2022/03/12 14:03:57;;;;;;;91.82;18.27;;;;;;;;;;5046803;28;20311;-75
2022/03/12 14:06:27;;;;;;;56.60;12.88;;;;;;;;;;5057821;28;20262;-76
2022/03/12 14:08:56;;;;;;;87.45;16.95;;;;;;;;;;5057278;28;20210;-75
2022/03/12 14:11:51;;;;;;;77.38;14.43;;;;;;;;;;5038864;28;20274;-75
2022/03/12 14:14:18;;;;;;;54.42;12.25;;;;;;;;;;5042679;28;20679;-75
2022/03/12 14:16:46;;;;;;;76.78;15.00;;;;;;;;;;5061391;28;20179;-75